Flight Track Log - Related Links

Times and Time Zones

All times are in EDT time to prevent confusion due to time zone crossing. See the AWE3794 flight status page for this flight to view local times or setup timezone preferences in your user account.

Time Position Orientation Groundspeed Altitude Reporting Facility
EDT Latitude Longitude Course Direction KTS MPH feet Rate Location/Type
Thu 09:32:53 AM 41.3919 -81.8756 114° Southeast 158 182 2,200  Level Cleveland Center
Thu 09:33:23 AM 41.3669 -81.8753 180° South 178 205 3,200 2,516 Climbing Cleveland Center
Thu 09:34:26 AM 41.3108 -81.8575 167° South 208 239 6,100 2,683 Climbing Cleveland Center
Thu 09:35:00 AM 41.2460 -81.5084 124° Southeast  Level FlightAware Approximate
Thu 09:35:26 AM 41.2764 -81.7656 116° Southeast 220 253 8,700  Level Cleveland Center
Thu 09:36:00 AM 41.1906 -81.3977 124° Southeast  Level FlightAware Approximate
Thu 09:36:26 AM 41.2483 -81.6547 109° East 265 305 11,000  Level Cleveland Center
Thu 09:37:00 AM 41.1352 -81.2871 124° Southeast  Level FlightAware Approximate
Thu 09:37:26 AM 41.2139 -81.5381 111° Southeast 308 354 13,600  Level Cleveland Center
Thu 09:38:00 AM 41.0897 -81.1690 114° Southeast  Level FlightAware Approximate
Thu 09:38:26 AM 41.1814 -81.4411 114° Southeast 332 382 15,400  Level Cleveland Center
Thu 09:40:26 AM 41.0933 -81.1589 112° Southeast 379 436 19,500 1,867 Climbing Cleveland Center
Thu 09:41:26 AM 41.0586 -81.0208 108° East 390 449 21,000 1,550 Climbing Cleveland Center
Thu 09:42:26 AM 41.0172 -80.8775 111° Southeast 395 455 22,600 1,450 Climbing Cleveland Center
Thu 09:43:26 AM 40.9758 -80.7344 111° Southeast 406 467 23,900 1,200 Climbing Cleveland Center
Thu 09:44:26 AM 40.9364 -80.5886 110° East 413 475 25,000 550 Climbing Cleveland Center
Thu 09:45:26 AM 40.8925 -80.4375 111° Southeast 429 494 25,000  Level Cleveland Center
Thu 09:46:26 AM 40.8506 -80.3058 113° Southeast 434 499 25,000  Level Cleveland Center
Thu 09:47:26 AM 40.8064 -80.1581 112° Southeast 434 499 25,000  Level Cleveland Center
Thu 09:48:26 AM 40.7558 -80.0211 116° Southeast 422 486 25,000  Level Cleveland Center
Thu 09:49:27 AM 40.7028 -79.8764 116° Southeast 422 486 25,000  Level Cleveland Center
Thu 09:50:26 AM 40.6519 -79.7347 115° Southeast 422 486 25,000  Level Cleveland Center
Thu 09:51:26 AM 40.5986 -79.5878 116° Southeast 422 486 25,000  Level Cleveland Center
Thu 09:52:26 AM 40.5450 -79.4411 116° Southeast 427 491 25,000  Level Cleveland Center
Thu 09:53:26 AM 40.4831 -79.2836 117° Southeast 427 491 25,000  Level Cleveland Center
Thu 09:54:26 AM 40.4292 -79.1375 116° Southeast 438 504 25,000  Level Cleveland Center
Thu 09:55:26 AM 40.3772 -78.9969 116° Southeast 438 504 25,000  Level Cleveland Center
Thu 09:56:26 AM 40.3228 -78.8483 116° Southeast 443 510 25,000  Level Cleveland Center
Thu 09:57:26 AM 40.3139 -78.6825 94° East 437 503 25,000  Level Cleveland Center
Thu 09:58:26 AM 40.3153 -78.5108 89° East 452 520 25,000  Level Cleveland Center
Thu 10:00:28 AM 40.3133 -78.1675 90° East 471 542 25,000  Level New York Center
Thu 10:01:29 AM 40.3114 -77.9956 91° East 476 548 25,000  Level New York Center
Thu 10:02:29 AM 40.3114 -77.8242 90° East 476 548 25,000 -615 Level New York Center
Thu 10:03:26 AM 40.3122 -77.6689 90° East 482 555 23,800 -1,322 Descending New York Center
Thu 10:04:27 AM 40.3094 -77.4997 91° East 472 543 22,400 -1,377 Descending New York Center
Thu 10:05:28 AM 40.3081 -77.3392 91° East 458 527 21,000 -1,426 Descending New York Center
Thu 10:06:29 AM 40.3028 -77.1697 92° East 436 502 19,500 -1,513 Descending New York Center
Thu 10:07:27 AM 40.2914 -77.0300 96° East 396 456 18,000 -1,271 Descending New York Center
Thu 10:08:27 AM 40.2614 -76.8883 105° East 387 445 17,000 -1,200 Descending New York Center
Thu 10:09:27 AM 40.2319 -76.7717 108° East 382 440 15,600 -1,240 Descending New York Center
Thu 10:10:28 AM 40.2031 -76.6386 106° East 382 440 14,500 -1,160 Descending New York Center
Thu 10:11:26 AM 40.1683 -76.4969 108° East 377 434 13,300 -1,086 Descending New York Center
Thu 10:12:24 AM 40.1372 -76.3708 108° East 378 435 12,400 -918 Descending FAA TRACON SMA TRACON (SMA)
Thu 10:13:04 AM 40.1189 -76.2906 107° East 367 422 11,800 -915 Descending FAA TRACON SMA TRACON (SMA)
Thu 10:13:23 AM 40.1181 -76.2514 92° East 350 403 11,500 -1,077 Descending FAA TRACON SMA TRACON (SMA)
Thu 10:13:43 AM 40.1147 -76.2094 96° East 327 376 11,100 -1,024 Descending FAA TRACON SMA TRACON (SMA)
Thu 10:14:04 AM 40.1119 -76.1717 95° East 309 356 10,800 -900 Descending FAA TRACON SMA TRACON (SMA)
Thu 10:14:23 AM 40.1094 -76.1378 95° East 305 351 10,500 -1,077 Descending FAA TRACON SMA TRACON (SMA)
Thu 10:14:43 AM 40.1072 -76.0992 94° East 306 352 10,100 -1,050 Descending FAA TRACON SMA TRACON (SMA)
Thu 10:15:03 AM 40.1036 -76.0617 97° East 303 349 9,800 -1,050 Descending FAA TRACON SMA TRACON (SMA)
Thu 10:15:23 AM 40.1022 -76.0289 93° East 302 348 9,400 -1,024 Descending FAA TRACON SMA TRACON (SMA)
Thu 10:15:44 AM 40.0975 -75.9917 99° East 301 346 9,100 -1,024 Descending FAA TRACON SMA TRACON (SMA)
Thu 10:16:04 AM 40.0967 -75.9533 92° East 301 346 8,700 -1,077 Descending FAA TRACON SMA TRACON (SMA)
Thu 10:16:23 AM 40.0942 -75.9194 95° East 302 348 8,400 -1,077 Descending FAA TRACON SMA TRACON (SMA)
Thu 10:16:43 AM 40.0900 -75.8803 98° East 301 346 8,000 -585 Descending FAA TRACON SMA TRACON (SMA)
Thu 10:17:04 AM 40.0892 -75.8444 92° East 300 345 8,000  Level FAA TRACON SMA TRACON (SMA)
Thu 10:17:23 AM 40.0869 -75.8119 95° East 295 339 8,000  Level FAA TRACON SMA TRACON (SMA)
Thu 10:17:43 AM 40.0842 -75.7731 95° East 292 336 8,000  Level FAA TRACON SMA TRACON (SMA)
Thu 10:18:24 AM 40.0800 -75.7056 95° East 296 341 8,000  Level FAA TRACON SMA TRACON (SMA)
Thu 10:18:44 AM 40.0778 -75.6650 94° East 297 342 8,000  Level FAA TRACON SMA TRACON (SMA)
Thu 10:19:04 AM 40.0764 -75.6308 93° East 283 326 8,000  Level FAA TRACON SMA TRACON (SMA)
Thu 10:19:44 AM 40.0739 -75.5697 93° East 252 290 8,000 -300 Level FAA TRACON SMA TRACON (SMA)
Thu 10:20:04 AM 40.0722 -75.5417 94° East 253 291 7,700 -900 Descending FAA TRACON SMA TRACON (SMA)
Thu 10:20:24 AM 40.0708 -75.5108 93° East 254 292 7,400 -900 Descending FAA TRACON SMA TRACON (SMA)
Thu 10:20:44 AM 40.0692 -75.4769 94° East 255 293 7,100 -600 Descending FAA TRACON SMA TRACON (SMA)
Thu 10:21:04 AM 40.0678 -75.4475 94° East 253 291 7,000 -150 Descending FAA TRACON SMA TRACON (SMA)
Thu 10:21:24 AM 40.0667 -75.4197 93° East 250 288 7,000  Level FAA TRACON SMA TRACON (SMA)
Thu 10:21:44 AM 40.0653 -75.3861 93° East 251 289 7,000  Level FAA TRACON SMA TRACON (SMA)
Thu 10:22:04 AM 40.0639 -75.3567 94° East 255 293 7,000 -150 Level FAA TRACON SMA TRACON (SMA)
Thu 10:22:24 AM 40.0619 -75.3278 95° East 255 293 6,900 -600 Descending FAA TRACON SMA TRACON (SMA)
Thu 10:22:44 AM 40.0600 -75.2917 94° East 254 292 6,600 -1,050 Descending FAA TRACON SMA TRACON (SMA)
Thu 10:23:04 AM 40.0583 -75.2642 95° East 249 287 6,200 -1,050 Descending FAA TRACON SMA TRACON (SMA)
Thu 10:23:24 AM 40.0569 -75.2367 94° East 247 284 5,900 -1,350 Descending FAA TRACON SMA TRACON (SMA)
Thu 10:23:44 AM 40.0444 -75.2089 120° Southeast 244 281 5,300 -1,350 Descending FAA TRACON SMA TRACON (SMA)
Thu 10:24:04 AM 40.0247 -75.1989 159° South 239 275 5,000 -450 Descending FAA TRACON SMA TRACON (SMA)
Thu 10:24:24 AM 40.0058 -75.1933 167° South 218 251 5,000  Level FAA TRACON SMA TRACON (SMA)
Thu 10:24:44 AM 39.9833 -75.1858 166° South 219 252 5,000  Level FAA TRACON SMA TRACON (SMA)
Thu 10:25:04 AM 39.9711 -75.1678 131° Southeast 237 273 5,000  Level FAA TRACON SMA TRACON (SMA)
Thu 10:25:24 AM 39.9708 -75.1450 91° East 203 234 5,000  Level FAA TRACON SMA TRACON (SMA)
Thu 10:25:44 AM 39.9733 -75.1167 83° East 217 250 5,000  Level FAA TRACON SMA TRACON (SMA)
Thu 10:26:04 AM 39.9750 -75.0911 85° East 214 246 5,000 -600 Level FAA TRACON SMA TRACON (SMA)
Thu 10:26:24 AM 39.9769 -75.0658 84° East 217 250 4,600 -1,200 Descending FAA TRACON SMA TRACON (SMA)
Thu 10:26:44 AM 39.9786 -75.0389 85° East 214 246 4,200 -1,350 Descending FAA TRACON SMA TRACON (SMA)
Thu 10:27:04 AM 39.9683 -75.0161 120° Southeast 217 250 3,700 -1,350 Descending FAA TRACON SMA TRACON (SMA)
Thu 10:27:24 AM 39.9517 -75.0075 158° South 228 262 3,300 -1,200 Descending FAA TRACON SMA TRACON (SMA)

Login

Don't have an account? Register now (free) for customized features, flight alerts, and more!